sensor_id;sensor_type;location;lat;lon;timestamp;P1;durP1;ratioP1;P2;durP2;ratioP2
9310;SDS011;4694;52.464;13.480;2023-08-31T00:01:32;5.57;;;4.40;;
9310;SDS011;4694;52.464;13.480;2023-08-31T00:03:59;4.95;;;4.50;;
9310;SDS011;4694;52.464;13.480;2023-08-31T00:06:26;5.30;;;4.80;;
9310;SDS011;4694;52.464;13.480;2023-08-31T00:08:54;4.38;;;3.78;;
9310;SDS011;4694;52.464;13.480;2023-08-31T00:11:21;5.65;;;3.95;;
9310;SDS011;4694;52.464;13.480;2023-08-31T00:13:48;4.95;;;4.55;;
9310;SDS011;4694;52.464;13.480;2023-08-31T00:16:17;5.45;;;3.90;;
9310;SDS011;4694;52.464;13.480;2023-08-31T00:18:43;5.00;;;4.22;;
9310;SDS011;4694;52.464;13.480;2023-08-31T00:21:11;5.45;;;4.13;;
9310;SDS011;4694;52.464;13.480;2023-08-31T00:23:39;5.63;;;4.35;;
9310;SDS011;4694;52.464;13.480;2023-08-31T00:26:07;5.80;;;4.38;;
9310;SDS011;4694;52.464;13.480;2023-08-31T00:28:34;4.30;;;4.00;;
9310;SDS011;4694;52.464;13.480;2023-08-31T00:31:01;5.05;;;4.30;;
9310;SDS011;4694;52.464;13.480;2023-08-31T00:33:31;5.32;;;4.45;;
9310;SDS011;4694;52.464;13.480;2023-08-31T00:35:59;4.47;;;4.07;;
9310;SDS011;4694;52.464;13.480;2023-08-31T00:38:29;4.15;;;3.83;;
9310;SDS011;4694;52.464;13.480;2023-08-31T00:40:56;4.60;;;4.15;;
9310;SDS011;4694;52.464;13.480;2023-08-31T00:43:25;5.53;;;4.80;;
9310;SDS011;4694;52.464;13.480;2023-08-31T00:45:54;6.70;;;5.30;;
9310;SDS011;4694;52.464;13.480;2023-08-31T00:48:23;4.88;;;4.40;;
9310;SDS011;4694;52.464;13.480;2023-08-31T00:50:53;5.93;;;4.95;;
9310;SDS011;4694;52.464;13.480;2023-08-31T00:53:20;6.25;;;4.38;;
9310;SDS011;4694;52.464;13.480;2023-08-31T00:55:48;8.13;;;4.45;;
9310;SDS011;4694;52.464;13.480;2023-08-31T00:58:17;4.47;;;3.95;;
9310;SDS011;4694;52.464;13.480;2023-08-31T01:00:47;5.20;;;4.70;;
9310;SDS011;4694;52.464;13.480;2023-08-31T01:03:22;5.90;;;4.72;;
9310;SDS011;4694;52.464;13.480;2023-08-31T01:06:09;7.05;;;5.13;;
9310;SDS011;4694;52.464;13.480;2023-08-31T01:08:46;5.93;;;4.68;;
9310;SDS011;4694;52.464;13.480;2023-08-31T01:11:21;6.85;;;5.03;;
9310;SDS011;4694;52.464;13.480;2023-08-31T01:14:00;5.45;;;4.95;;
9310;SDS011;4694;52.464;13.480;2023-08-31T01:16:32;4.97;;;4.57;;
9310;SDS011;4694;52.464;13.480;2023-08-31T01:19:00;6.05;;;4.55;;
9310;SDS011;4694;52.464;13.480;2023-08-31T01:21:37;6.22;;;4.20;;
9310;SDS011;4694;52.464;13.480;2023-08-31T01:24:07;5.05;;;4.55;;
9310;SDS011;4694;52.464;13.480;2023-08-31T01:26:37;4.53;;;3.80;;
9310;SDS011;4694;52.464;13.480;2023-08-31T01:29:07;4.68;;;4.25;;
9310;SDS011;4694;52.464;13.480;2023-08-31T01:31:41;5.57;;;4.40;;
9310;SDS011;4694;52.464;13.480;2023-08-31T01:34:09;5.63;;;4.68;;
9310;SDS011;4694;52.464;13.480;2023-08-31T01:36:36;3.88;;;3.47;;
9310;SDS011;4694;52.464;13.480;2023-08-31T01:39:20;7.30;;;5.00;;
9310;SDS011;4694;52.464;13.480;2023-08-31T01:41:54;4.55;;;3.67;;
9310;SDS011;4694;52.464;13.480;2023-08-31T01:44:23;3.75;;;3.45;;
9310;SDS011;4694;52.464;13.480;2023-08-31T01:47:01;5.05;;;3.03;;
9310;SDS011;4694;52.464;13.480;2023-08-31T01:49:36;8.95;;;4.32;;
9310;SDS011;4694;52.464;13.480;2023-08-31T01:52:05;4.47;;;3.78;;
9310;SDS011;4694;52.464;13.480;2023-08-31T01:54:36;4.63;;;3.47;;
9310;SDS011;4694;52.464;13.480;2023-08-31T01:57:05;4.50;;;3.78;;
9310;SDS011;4694;52.464;13.480;2023-08-31T01:59:31;5.28;;;4.35;;
9310;SDS011;4694;52.464;13.480;2023-08-31T02:02:03;4.82;;;4.40;;
9310;SDS011;4694;52.464;13.480;2023-08-31T02:04:30;5.18;;;4.18;;
9310;SDS011;4694;52.464;13.480;2023-08-31T02:06:57;3.00;;;2.78;;
9310;SDS011;4694;52.464;13.480;2023-08-31T02:09:24;3.88;;;2.78;;
9310;SDS011;4694;52.464;13.480;2023-08-31T02:11:52;3.70;;;3.28;;
9310;SDS011;4694;52.464;13.480;2023-08-31T02:14:19;3.67;;;2.58;;
9310;SDS011;4694;52.464;13.480;2023-08-31T02:16:47;2.58;;;2.35;;
9310;SDS011;4694;52.464;13.480;2023-08-31T02:19:15;4.78;;;2.90;;
9310;SDS011;4694;52.464;13.480;2023-08-31T02:21:42;4.13;;;3.08;;
9310;SDS011;4694;52.464;13.480;2023-08-31T02:24:11;2.63;;;2.42;;
9310;SDS011;4694;52.464;13.480;2023-08-31T02:26:38;3.40;;;2.88;;
9310;SDS011;4694;52.464;13.480;2023-08-31T02:29:08;4.03;;;3.03;;
9310;SDS011;4694;52.464;13.480;2023-08-31T02:31:38;3.42;;;2.88;;
9310;SDS011;4694;52.464;13.480;2023-08-31T02:34:04;4.53;;;2.17;;
9310;SDS011;4694;52.464;13.480;2023-08-31T02:36:31;2.13;;;1.90;;
9310;SDS011;4694;52.464;13.480;2023-08-31T02:38:58;2.40;;;1.70;;
9310;SDS011;4694;52.464;13.480;2023-08-31T02:41:25;2.90;;;1.65;;
9310;SDS011;4694;52.464;13.480;2023-08-31T02:43:52;2.47;;;1.95;;
9310;SDS011;4694;52.464;13.480;2023-08-31T02:46:22;4.22;;;1.88;;
9310;SDS011;4694;52.464;13.480;2023-08-31T02:48:49;3.33;;;2.50;;
9310;SDS011;4694;52.464;13.480;2023-08-31T02:51:16;2.45;;;2.25;;
9310;SDS011;4694;52.464;13.480;2023-08-31T02:53:43;1.75;;;1.58;;
9310;SDS011;4694;52.464;13.480;2023-08-31T02:56:10;2.25;;;1.50;;
9310;SDS011;4694;52.464;13.480;2023-08-31T02:58:38;2.42;;;2.10;;
9310;SDS011;4694;52.464;13.480;2023-08-31T03:01:10;1.88;;;1.50;;
9310;SDS011;4694;52.464;13.480;2023-08-31T03:03:44;3.50;;;1.80;;
9310;SDS011;4694;52.464;13.480;2023-08-31T03:06:11;2.25;;;1.90;;
9310;SDS011;4694;52.464;13.480;2023-08-31T03:08:38;4.10;;;2.92;;
9310;SDS011;4694;52.464;13.480;2023-08-31T03:11:05;3.05;;;2.63;;
9310;SDS011;4694;52.464;13.480;2023-08-31T03:13:32;3.60;;;2.88;;
9310;SDS011;4694;52.464;13.480;2023-08-31T03:15:59;3.63;;;2.03;;
9310;SDS011;4694;52.464;13.480;2023-08-31T03:18:27;2.95;;;2.60;;
9310;SDS011;4694;52.464;13.480;2023-08-31T03:20:58;3.70;;;2.20;;
9310;SDS011;4694;52.464;13.480;2023-08-31T03:23:29;3.55;;;2.65;;
9310;SDS011;4694;52.464;13.480;2023-08-31T03:25:57;6.78;;;3.80;;
9310;SDS011;4694;52.464;13.480;2023-08-31T03:28:24;19.75;;;10.25;;
9310;SDS011;4694;52.464;13.480;2023-08-31T03:30:56;35.90;;;15.25;;
9310;SDS011;4694;52.464;13.480;2023-08-31T03:33:23;24.35;;;10.73;;
9310;SDS011;4694;52.464;13.480;2023-08-31T03:35:52;13.02;;;5.82;;
9310;SDS011;4694;52.464;13.480;2023-08-31T03:38:20;13.50;;;7.22;;
9310;SDS011;4694;52.464;13.480;2023-08-31T03:40:57;3.47;;;2.42;;
9310;SDS011;4694;52.464;13.480;2023-08-31T03:43:26;3.08;;;2.20;;
9310;SDS011;4694;52.464;13.480;2023-08-31T03:45:59;3.40;;;2.05;;
9310;SDS011;4694;52.464;13.480;2023-08-31T03:48:28;4.10;;;2.28;;
9310;SDS011;4694;52.464;13.480;2023-08-31T03:50:55;4.50;;;2.50;;
9310;SDS011;4694;52.464;13.480;2023-08-31T03:53:23;2.30;;;1.98;;
9310;SDS011;4694;52.464;13.480;2023-08-31T03:55:50;3.65;;;2.58;;
9310;SDS011;4694;52.464;13.480;2023-08-31T03:58:20;6.78;;;2.83;;
9310;SDS011;4694;52.464;13.480;2023-08-31T04:00:48;2.93;;;2.17;;
9310;SDS011;4694;52.464;13.480;2023-08-31T04:03:16;9.80;;;4.45;;
9310;SDS011;4694;52.464;13.480;2023-08-31T04:05:43;6.63;;;4.15;;
9310;SDS011;4694;52.464;13.480;2023-08-31T04:08:09;9.23;;;4.38;;
9310;SDS011;4694;52.464;13.480;2023-08-31T04:10:47;10.73;;;5.88;;
9310;SDS011;4694;52.464;13.480;2023-08-31T04:13:16;13.05;;;6.97;;
9310;SDS011;4694;52.464;13.480;2023-08-31T04:15:42;11.75;;;7.70;;
9310;SDS011;4694;52.464;13.480;2023-08-31T04:18:09;13.07;;;7.65;;
9310;SDS011;4694;52.464;13.480;2023-08-31T04:20:38;19.58;;;9.13;;
9310;SDS011;4694;52.464;13.480;2023-08-31T04:23:14;16.08;;;8.50;;
9310;SDS011;4694;52.464;13.480;2023-08-31T04:25:43;26.27;;;13.15;;
9310;SDS011;4694;52.464;13.480;2023-08-31T04:28:12;22.45;;;10.15;;
9310;SDS011;4694;52.464;13.480;2023-08-31T04:30:46;24.77;;;12.93;;
9310;SDS011;4694;52.464;13.480;2023-08-31T04:33:14;31.52;;;14.02;;
9310;SDS011;4694;52.464;13.480;2023-08-31T04:35:42;19.30;;;11.02;;
9310;SDS011;4694;52.464;13.480;2023-08-31T04:38:08;17.50;;;10.32;;
9310;SDS011;4694;52.464;13.480;2023-08-31T04:40:35;15.32;;;10.05;;
9310;SDS011;4694;52.464;13.480;2023-08-31T04:43:07;14.35;;;9.07;;
9310;SDS011;4694;52.464;13.480;2023-08-31T04:45:38;11.43;;;6.70;;
9310;SDS011;4694;52.464;13.480;2023-08-31T04:48:05;12.60;;;7.47;;
9310;SDS011;4694;52.464;13.480;2023-08-31T04:50:32;10.75;;;6.57;;
9310;SDS011;4694;52.464;13.480;2023-08-31T04:52:59;7.80;;;5.90;;
9310;SDS011;4694;52.464;13.480;2023-08-31T04:55:28;7.20;;;5.90;;
9310;SDS011;4694;52.464;13.480;2023-08-31T04:57:57;7.10;;;4.18;;
9310;SDS011;4694;52.464;13.480;2023-08-31T05:00:26;10.20;;;7.10;;
9310;SDS011;4694;52.464;13.480;2023-08-31T05:02:55;8.30;;;7.13;;
9310;SDS011;4694;52.464;13.480;2023-08-31T05:05:22;9.23;;;5.68;;
9310;SDS011;4694;52.464;13.480;2023-08-31T05:07:49;8.20;;;6.07;;
9310;SDS011;4694;52.464;13.480;2023-08-31T05:10:17;8.00;;;6.82;;
9310;SDS011;4694;52.464;13.480;2023-08-31T05:12:44;9.35;;;5.93;;
9310;SDS011;4694;52.464;13.480;2023-08-31T05:15:12;8.70;;;6.13;;
9310;SDS011;4694;52.464;13.480;2023-08-31T05:17:41;8.93;;;7.10;;
9310;SDS011;4694;52.464;13.480;2023-08-31T05:20:10;8.32;;;6.85;;
9310;SDS011;4694;52.464;13.480;2023-08-31T05:22:38;9.02;;;6.15;;
9310;SDS011;4694;52.464;13.480;2023-08-31T05:25:20;10.93;;;6.82;;
9310;SDS011;4694;52.464;13.480;2023-08-31T05:27:47;9.48;;;6.53;;
9310;SDS011;4694;52.464;13.480;2023-08-31T05:30:15;6.40;;;5.72;;
9310;SDS011;4694;52.464;13.480;2023-08-31T05:32:42;8.65;;;5.78;;
9310;SDS011;4694;52.464;13.480;2023-08-31T05:35:10;8.32;;;5.25;;
9310;SDS011;4694;52.464;13.480;2023-08-31T05:37:36;10.60;;;6.35;;
9310;SDS011;4694;52.464;13.480;2023-08-31T05:40:03;9.52;;;6.00;;
9310;SDS011;4694;52.464;13.480;2023-08-31T05:42:31;7.45;;;5.60;;
9310;SDS011;4694;52.464;13.480;2023-08-31T05:44:58;11.18;;;6.90;;
9310;SDS011;4694;52.464;13.480;2023-08-31T05:47:25;7.70;;;5.55;;
9310;SDS011;4694;52.464;13.480;2023-08-31T05:49:52;9.68;;;6.20;;
9310;SDS011;4694;52.464;13.480;2023-08-31T05:52:27;10.65;;;7.20;;
9310;SDS011;4694;52.464;13.480;2023-08-31T05:54:54;13.60;;;7.18;;
9310;SDS011;4694;52.464;13.480;2023-08-31T05:57:21;8.30;;;5.97;;
9310;SDS011;4694;52.464;13.480;2023-08-31T05:59:48;8.05;;;6.88;;
9310;SDS011;4694;52.464;13.480;2023-08-31T06:02:15;12.73;;;7.43;;
9310;SDS011;4694;52.464;13.480;2023-08-31T06:04:42;10.93;;;7.40;;
9310;SDS011;4694;52.464;13.480;2023-08-31T06:07:14;12.10;;;8.10;;
9310;SDS011;4694;52.464;13.480;2023-08-31T06:09:42;10.45;;;6.95;;
9310;SDS011;4694;52.464;13.480;2023-08-31T06:12:08;10.07;;;7.43;;
9310;SDS011;4694;52.464;13.480;2023-08-31T06:14:35;7.90;;;6.38;;
9310;SDS011;4694;52.464;13.480;2023-08-31T06:17:01;7.50;;;6.13;;
9310;SDS011;4694;52.464;13.480;2023-08-31T06:19:29;8.57;;;6.00;;
9310;SDS011;4694;52.464;13.480;2023-08-31T06:21:56;9.23;;;6.47;;
9310;SDS011;4694;52.464;13.480;2023-08-31T06:24:24;7.30;;;5.85;;
9310;SDS011;4694;52.464;13.480;2023-08-31T06:26:52;9.52;;;6.15;;
9310;SDS011;4694;52.464;13.480;2023-08-31T06:29:20;11.35;;;6.93;;
9310;SDS011;4694;52.464;13.480;2023-08-31T06:31:46;7.88;;;5.38;;
9310;SDS011;4694;52.464;13.480;2023-08-31T06:34:13;9.82;;;6.28;;
9310;SDS011;4694;52.464;13.480;2023-08-31T06:36:39;11.38;;;5.60;;
9310;SDS011;4694;52.464;13.480;2023-08-31T06:39:06;10.23;;;6.03;;
9310;SDS011;4694;52.464;13.480;2023-08-31T06:41:33;9.55;;;5.90;;
9310;SDS011;4694;52.464;13.480;2023-08-31T06:44:01;8.57;;;5.70;;
9310;SDS011;4694;52.464;13.480;2023-08-31T06:46:29;7.68;;;5.45;;
9310;SDS011;4694;52.464;13.480;2023-08-31T06:48:58;7.83;;;5.23;;
9310;SDS011;4694;52.464;13.480;2023-08-31T06:51:25;7.82;;;5.95;;
9310;SDS011;4694;52.464;13.480;2023-08-31T06:53:52;8.82;;;5.38;;
9310;SDS011;4694;52.464;13.480;2023-08-31T06:56:19;8.35;;;5.43;;
9310;SDS011;4694;52.464;13.480;2023-08-31T06:58:45;9.27;;;5.95;;
9310;SDS011;4694;52.464;13.480;2023-08-31T07:01:13;14.40;;;6.32;;
9310;SDS011;4694;52.464;13.480;2023-08-31T07:03:40;7.13;;;5.05;;
9310;SDS011;4694;52.464;13.480;2023-08-31T07:06:07;8.80;;;6.30;;
9310;SDS011;4694;52.464;13.480;2023-08-31T07:08:33;8.93;;;7.43;;
9310;SDS011;4694;52.464;13.480;2023-08-31T07:11:01;9.05;;;6.28;;
9310;SDS011;4694;52.464;13.480;2023-08-31T07:13:28;6.95;;;5.55;;
9310;SDS011;4694;52.464;13.480;2023-08-31T07:15:54;7.72;;;6.00;;
9310;SDS011;4694;52.464;13.480;2023-08-31T07:18:23;7.15;;;6.45;;
9310;SDS011;4694;52.464;13.480;2023-08-31T07:20:50;10.88;;;6.80;;
9310;SDS011;4694;52.464;13.480;2023-08-31T07:23:16;10.20;;;6.13;;
9310;SDS011;4694;52.464;13.480;2023-08-31T07:25:43;9.93;;;6.38;;
9310;SDS011;4694;52.464;13.480;2023-08-31T07:28:12;10.93;;;6.07;;
9310;SDS011;4694;52.464;13.480;2023-08-31T07:30:39;10.85;;;6.90;;
9310;SDS011;4694;52.464;13.480;2023-08-31T07:33:05;10.80;;;8.23;;
9310;SDS011;4694;52.464;13.480;2023-08-31T07:35:34;7.38;;;5.82;;
9310;SDS011;4694;52.464;13.480;2023-08-31T07:38:01;9.65;;;6.65;;
9310;SDS011;4694;52.464;13.480;2023-08-31T07:40:28;10.65;;;6.22;;
9310;SDS011;4694;52.464;13.480;2023-08-31T07:42:55;9.48;;;5.97;;
9310;SDS011;4694;52.464;13.480;2023-08-31T07:45:22;6.03;;;5.40;;
9310;SDS011;4694;52.464;13.480;2023-08-31T07:47:48;9.45;;;5.85;;
9310;SDS011;4694;52.464;13.480;2023-08-31T07:50:15;8.05;;;6.50;;
9310;SDS011;4694;52.464;13.480;2023-08-31T07:52:43;11.23;;;5.78;;
9310;SDS011;4694;52.464;13.480;2023-08-31T07:55:10;7.45;;;5.70;;
9310;SDS011;4694;52.464;13.480;2023-08-31T07:57:37;8.45;;;5.93;;
9310;SDS011;4694;52.464;13.480;2023-08-31T08:00:04;10.68;;;5.53;;
9310;SDS011;4694;52.464;13.480;2023-08-31T08:02:33;6.28;;;5.60;;
9310;SDS011;4694;52.464;13.480;2023-08-31T08:04:59;7.35;;;4.90;;
9310;SDS011;4694;52.464;13.480;2023-08-31T08:07:26;6.30;;;4.95;;
9310;SDS011;4694;52.464;13.480;2023-08-31T08:09:54;7.30;;;4.90;;
9310;SDS011;4694;52.464;13.480;2023-08-31T08:12:20;5.60;;;5.05;;
9310;SDS011;4694;52.464;13.480;2023-08-31T08:14:47;8.10;;;4.90;;
9310;SDS011;4694;52.464;13.480;2023-08-31T08:17:14;5.78;;;4.88;;
9310;SDS011;4694;52.464;13.480;2023-08-31T08:19:40;6.60;;;5.15;;
9310;SDS011;4694;52.464;13.480;2023-08-31T08:22:07;8.32;;;4.95;;
9310;SDS011;4694;52.464;13.480;2023-08-31T08:24:37;4.95;;;3.63;;
9310;SDS011;4694;52.464;13.480;2023-08-31T08:27:05;6.25;;;3.78;;
9310;SDS011;4694;52.464;13.480;2023-08-31T08:29:31;7.28;;;3.67;;
9310;SDS011;4694;52.464;13.480;2023-08-31T08:31:58;5.72;;;2.80;;
9310;SDS011;4694;52.464;13.480;2023-08-31T08:34:25;6.75;;;3.20;;
9310;SDS011;4694;52.464;13.480;2023-08-31T08:36:53;2.88;;;2.53;;
9310;SDS011;4694;52.464;13.480;2023-08-31T08:39:19;8.30;;;2.60;;
9310;SDS011;4694;52.464;13.480;2023-08-31T08:41:46;3.33;;;2.08;;
9310;SDS011;4694;52.464;13.480;2023-08-31T08:44:16;5.03;;;2.63;;
9310;SDS011;4694;52.464;13.480;2023-08-31T08:46:48;4.57;;;2.13;;
9310;SDS011;4694;52.464;13.480;2023-08-31T08:49:16;7.45;;;2.85;;
9310;SDS011;4694;52.464;13.480;2023-08-31T08:51:44;4.20;;;2.20;;
9310;SDS011;4694;52.464;13.480;2023-08-31T08:54:12;4.28;;;2.30;;
9310;SDS011;4694;52.464;13.480;2023-08-31T08:56:42;2.88;;;2.17;;
9310;SDS011;4694;52.464;13.480;2023-08-31T08:59:09;2.97;;;2.08;;
9310;SDS011;4694;52.464;13.480;2023-08-31T09:01:40;4.90;;;2.28;;
9310;SDS011;4694;52.464;13.480;2023-08-31T09:04:08;2.35;;;1.50;;
9310;SDS011;4694;52.464;13.480;2023-08-31T09:06:35;2.60;;;2.35;;
9310;SDS011;4694;52.464;13.480;2023-08-31T09:09:04;4.13;;;2.10;;
9310;SDS011;4694;52.464;13.480;2023-08-31T09:11:32;2.60;;;1.67;;
9310;SDS011;4694;52.464;13.480;2023-08-31T09:14:15;2.22;;;1.90;;
9310;SDS011;4694;52.464;13.480;2023-08-31T09:16:45;3.63;;;1.45;;
9310;SDS011;4694;52.464;13.480;2023-08-31T09:19:19;3.13;;;1.63;;
9310;SDS011;4694;52.464;13.480;2023-08-31T09:21:47;5.07;;;1.30;;
9310;SDS011;4694;52.464;13.480;2023-08-31T09:24:14;2.80;;;1.25;;
9310;SDS011;4694;52.464;13.480;2023-08-31T09:26:43;6.15;;;1.50;;
9310;SDS011;4694;52.464;13.480;2023-08-31T09:29:11;1.45;;;1.25;;
9310;SDS011;4694;52.464;13.480;2023-08-31T09:31:39;2.97;;;1.25;;
9310;SDS011;4694;52.464;13.480;2023-08-31T09:34:09;2.05;;;1.60;;
9310;SDS011;4694;52.464;13.480;2023-08-31T09:36:37;6.38;;;1.95;;
9310;SDS011;4694;52.464;13.480;2023-08-31T09:39:06;8.77;;;3.65;;
9310;SDS011;4694;52.464;13.480;2023-08-31T09:41:33;4.22;;;2.03;;
9310;SDS011;4694;52.464;13.480;2023-08-31T09:44:14;4.75;;;1.60;;
9310;SDS011;4694;52.464;13.480;2023-08-31T09:46:42;3.10;;;1.73;;
9310;SDS011;4694;52.464;13.480;2023-08-31T09:49:14;6.22;;;1.88;;
9310;SDS011;4694;52.464;13.480;2023-08-31T09:51:43;4.43;;;1.73;;
9310;SDS011;4694;52.464;13.480;2023-08-31T09:54:12;5.50;;;2.40;;
9310;SDS011;4694;52.464;13.480;2023-08-31T09:56:40;3.97;;;2.22;;
9310;SDS011;4694;52.464;13.480;2023-08-31T09:59:09;2.70;;;1.88;;
9310;SDS011;4694;52.464;13.480;2023-08-31T10:01:37;4.65;;;1.30;;
9310;SDS011;4694;52.464;13.480;2023-08-31T10:04:04;4.63;;;1.95;;
9310;SDS011;4694;52.464;13.480;2023-08-31T10:06:35;2.67;;;1.80;;
9310;SDS011;4694;52.464;13.480;2023-08-31T10:09:02;4.30;;;2.22;;
9310;SDS011;4694;52.464;13.480;2023-08-31T10:11:30;3.83;;;3.22;;
9310;SDS011;4694;52.464;13.480;2023-08-31T10:13:57;3.28;;;2.13;;
9310;SDS011;4694;52.464;13.480;2023-08-31T10:16:24;4.28;;;3.88;;
9310;SDS011;4694;52.464;13.480;2023-08-31T10:18:52;2.80;;;1.70;;
9310;SDS011;4694;52.464;13.480;2023-08-31T10:21:19;1.60;;;1.45;;
9310;SDS011;4694;52.464;13.480;2023-08-31T10:23:47;2.10;;;1.67;;
9310;SDS011;4694;52.464;13.480;2023-08-31T10:26:22;2.72;;;1.13;;
9310;SDS011;4694;52.464;13.480;2023-08-31T10:28:49;3.25;;;1.33;;
9310;SDS011;4694;52.464;13.480;2023-08-31T10:31:17;2.70;;;1.20;;
9310;SDS011;4694;52.464;13.480;2023-08-31T10:33:45;2.67;;;1.00;;
9310;SDS011;4694;52.464;13.480;2023-08-31T10:36:13;1.63;;;0.80;;
9310;SDS011;4694;52.464;13.480;2023-08-31T10:38:41;1.38;;;0.73;;
9310;SDS011;4694;52.464;13.480;2023-08-31T10:41:22;1.52;;;1.00;;
9310;SDS011;4694;52.464;13.480;2023-08-31T10:43:51;1.55;;;0.90;;
9310;SDS011;4694;52.464;13.480;2023-08-31T10:46:26;7.38;;;1.17;;
9310;SDS011;4694;52.464;13.480;2023-08-31T10:48:54;3.45;;;0.90;;
9310;SDS011;4694;52.464;13.480;2023-08-31T10:51:25;1.33;;;0.83;;
9310;SDS011;4694;52.464;13.480;2023-08-31T10:56:38;3.92;;;0.77;;
9310;SDS011;4694;52.464;13.480;2023-08-31T10:59:25;4.28;;;1.13;;
9310;SDS011;4694;52.464;13.480;2023-08-31T11:02:07;3.35;;;1.30;;
9310;SDS011;4694;52.464;13.480;2023-08-31T11:04:52;1.52;;;0.75;;
9310;SDS011;4694;52.464;13.480;2023-08-31T11:07:23;5.40;;;1.05;;
9310;SDS011;4694;52.464;13.480;2023-08-31T11:10:05;2.40;;;0.95;;
9310;SDS011;4694;52.464;13.480;2023-08-31T11:12:38;1.80;;;0.60;;
9310;SDS011;4694;52.464;13.480;2023-08-31T11:15:07;2.35;;;0.60;;
9310;SDS011;4694;52.464;13.480;2023-08-31T11:17:37;1.08;;;0.90;;
9310;SDS011;4694;52.464;13.480;2023-08-31T11:20:06;1.35;;;0.60;;
9310;SDS011;4694;52.464;13.480;2023-08-31T11:22:34;1.85;;;1.08;;
9310;SDS011;4694;52.464;13.480;2023-08-31T11:25:04;1.60;;;0.75;;
9310;SDS011;4694;52.464;13.480;2023-08-31T11:27:32;1.48;;;0.68;;
9310;SDS011;4694;52.464;13.480;2023-08-31T11:30:00;1.55;;;0.93;;
9310;SDS011;4694;52.464;13.480;2023-08-31T11:32:28;3.38;;;1.48;;
9310;SDS011;4694;52.464;13.480;2023-08-31T11:34:54;1.25;;;0.70;;
9310;SDS011;4694;52.464;13.480;2023-08-31T11:37:21;2.15;;;0.85;;
9310;SDS011;4694;52.464;13.480;2023-08-31T11:39:49;1.35;;;1.00;;
9310;SDS011;4694;52.464;13.480;2023-08-31T11:42:17;1.73;;;0.90;;
9310;SDS011;4694;52.464;13.480;2023-08-31T11:44:45;1.63;;;1.10;;
9310;SDS011;4694;52.464;13.480;2023-08-31T11:47:15;2.25;;;1.05;;
9310;SDS011;4694;52.464;13.480;2023-08-31T11:49:42;1.20;;;0.77;;
9310;SDS011;4694;52.464;13.480;2023-08-31T11:52:10;2.72;;;1.10;;
9310;SDS011;4694;52.464;13.480;2023-08-31T11:54:38;1.33;;;1.20;;
9310;SDS011;4694;52.464;13.480;2023-08-31T11:57:06;2.78;;;0.70;;
9310;SDS011;4694;52.464;13.480;2023-08-31T11:59:34;2.17;;;0.77;;
9310;SDS011;4694;52.464;13.480;2023-08-31T12:02:05;1.88;;;1.02;;
9310;SDS011;4694;52.464;13.480;2023-08-31T12:04:41;1.65;;;0.70;;
9310;SDS011;4694;52.464;13.480;2023-08-31T12:07:11;2.78;;;1.10;;
9310;SDS011;4694;52.464;13.480;2023-08-31T12:09:42;3.13;;;0.77;;
9310;SDS011;4694;52.464;13.480;2023-08-31T12:12:09;1.02;;;0.63;;
9310;SDS011;4694;52.464;13.480;2023-08-31T12:14:36;1.63;;;0.70;;
9310;SDS011;4694;52.464;13.480;2023-08-31T12:17:05;1.83;;;0.83;;
9310;SDS011;4694;52.464;13.480;2023-08-31T12:19:35;2.33;;;1.08;;
9310;SDS011;4694;52.464;13.480;2023-08-31T12:22:03;1.25;;;1.00;;
9310;SDS011;4694;52.464;13.480;2023-08-31T12:24:36;2.95;;;1.30;;
9310;SDS011;4694;52.464;13.480;2023-08-31T12:27:03;0.93;;;0.85;;
9310;SDS011;4694;52.464;13.480;2023-08-31T12:29:38;2.22;;;1.00;;
9310;SDS011;4694;52.464;13.480;2023-08-31T12:32:05;3.55;;;2.00;;
9310;SDS011;4694;52.464;13.480;2023-08-31T12:34:31;3.72;;;1.88;;
9310;SDS011;4694;52.464;13.480;2023-08-31T12:37:00;3.08;;;1.40;;
9310;SDS011;4694;52.464;13.480;2023-08-31T12:39:27;4.25;;;0.93;;
9310;SDS011;4694;52.464;13.480;2023-08-31T12:41:54;2.60;;;1.23;;
9310;SDS011;4694;52.464;13.480;2023-08-31T12:44:21;3.00;;;1.77;;
9310;SDS011;4694;52.464;13.480;2023-08-31T12:46:50;1.45;;;1.15;;
9310;SDS011;4694;52.464;13.480;2023-08-31T12:49:17;2.17;;;0.98;;
9310;SDS011;4694;52.464;13.480;2023-08-31T12:51:46;3.65;;;1.45;;
9310;SDS011;4694;52.464;13.480;2023-08-31T12:54:15;3.42;;;1.80;;
9310;SDS011;4694;52.464;13.480;2023-08-31T12:56:41;6.10;;;1.45;;
9310;SDS011;4694;52.464;13.480;2023-08-31T12:59:08;8.10;;;1.45;;
9310;SDS011;4694;52.464;13.480;2023-08-31T13:01:35;4.55;;;1.95;;
9310;SDS011;4694;52.464;13.480;2023-08-31T13:04:01;5.22;;;1.83;;
9310;SDS011;4694;52.464;13.480;2023-08-31T13:06:30;5.00;;;1.63;;
9310;SDS011;4694;52.464;13.480;2023-08-31T13:08:56;2.40;;;1.42;;
9310;SDS011;4694;52.464;13.480;2023-08-31T13:11:24;1.45;;;1.35;;
9310;SDS011;4694;52.464;13.480;2023-08-31T13:13:51;3.60;;;1.10;;
9310;SDS011;4694;52.464;13.480;2023-08-31T13:16:17;2.05;;;1.38;;
9310;SDS011;4694;52.464;13.480;2023-08-31T13:18:44;2.67;;;0.70;;
9310;SDS011;4694;52.464;13.480;2023-08-31T13:21:11;0.52;;;0.43;;
9310;SDS011;4694;52.464;13.480;2023-08-31T13:23:37;1.58;;;0.60;;
9310;SDS011;4694;52.464;13.480;2023-08-31T13:26:04;0.80;;;0.50;;
9310;SDS011;4694;52.464;13.480;2023-08-31T13:28:33;1.70;;;0.82;;
9310;SDS011;4694;52.464;13.480;2023-08-31T13:31:00;0.93;;;0.68;;
9310;SDS011;4694;52.464;13.480;2023-08-31T13:33:26;1.67;;;0.73;;
9310;SDS011;4694;52.464;13.480;2023-08-31T13:35:56;1.75;;;0.70;;
9310;SDS011;4694;52.464;13.480;2023-08-31T13:38:23;1.23;;;1.13;;
9310;SDS011;4694;52.464;13.480;2023-08-31T13:40:53;0.98;;;0.82;;
9310;SDS011;4694;52.464;13.480;2023-08-31T13:43:20;2.33;;;1.00;;
9310;SDS011;4694;52.464;13.480;2023-08-31T13:45:49;1.70;;;0.70;;
9310;SDS011;4694;52.464;13.480;2023-08-31T13:48:15;2.17;;;0.90;;
9310;SDS011;4694;52.464;13.480;2023-08-31T13:50:42;2.95;;;1.42;;
9310;SDS011;4694;52.464;13.480;2023-08-31T13:53:08;1.27;;;0.80;;
9310;SDS011;4694;52.464;13.480;2023-08-31T13:55:35;1.52;;;0.70;;
9310;SDS011;4694;52.464;13.480;2023-08-31T13:58:05;1.65;;;1.27;;
9310;SDS011;4694;52.464;13.480;2023-08-31T14:00:32;0.95;;;0.75;;
9310;SDS011;4694;52.464;13.480;2023-08-31T14:03:01;3.35;;;0.90;;
9310;SDS011;4694;52.464;13.480;2023-08-31T14:05:28;1.85;;;0.88;;
9310;SDS011;4694;52.464;13.480;2023-08-31T14:07:55;1.65;;;0.60;;
9310;SDS011;4694;52.464;13.480;2023-08-31T14:10:22;5.00;;;2.45;;
9310;SDS011;4694;52.464;13.480;2023-08-31T14:12:49;1.50;;;0.60;;
9310;SDS011;4694;52.464;13.480;2023-08-31T14:15:16;1.10;;;0.85;;
9310;SDS011;4694;52.464;13.480;2023-08-31T14:17:42;2.30;;;1.65;;
9310;SDS011;4694;52.464;13.480;2023-08-31T14:20:11;1.45;;;0.88;;
9310;SDS011;4694;52.464;13.480;2023-08-31T14:22:38;1.02;;;0.80;;
9310;SDS011;4694;52.464;13.480;2023-08-31T14:25:08;4.30;;;0.93;;
9310;SDS011;4694;52.464;13.480;2023-08-31T14:27:35;4.40;;;0.75;;
9310;SDS011;4694;52.464;13.480;2023-08-31T14:30:02;3.03;;;1.00;;
9310;SDS011;4694;52.464;13.480;2023-08-31T14:32:29;2.58;;;1.08;;
9310;SDS011;4694;52.464;13.480;2023-08-31T14:34:55;2.10;;;0.85;;
9310;SDS011;4694;52.464;13.480;2023-08-31T14:37:23;3.30;;;1.75;;
9310;SDS011;4694;52.464;13.480;2023-08-31T14:39:50;16.55;;;7.57;;
9310;SDS011;4694;52.464;13.480;2023-08-31T14:42:17;4.10;;;1.10;;
9310;SDS011;4694;52.464;13.480;2023-08-31T14:44:45;1.40;;;1.00;;
9310;SDS011;4694;52.464;13.480;2023-08-31T14:47:12;2.92;;;0.85;;
9310;SDS011;4694;52.464;13.480;2023-08-31T14:49:39;2.30;;;0.90;;
9310;SDS011;4694;52.464;13.480;2023-08-31T14:52:06;1.02;;;0.57;;
9310;SDS011;4694;52.464;13.480;2023-08-31T14:54:34;1.55;;;0.73;;
9310;SDS011;4694;52.464;13.480;2023-08-31T14:57:01;1.90;;;0.95;;
9310;SDS011;4694;52.464;13.480;2023-08-31T14:59:29;2.05;;;0.70;;
9310;SDS011;4694;52.464;13.480;2023-08-31T15:01:56;0.90;;;0.55;;
9310;SDS011;4694;52.464;13.480;2023-08-31T15:04:23;0.40;;;0.40;;
9310;SDS011;4694;52.464;13.480;2023-08-31T15:06:49;1.63;;;0.40;;
9310;SDS011;4694;52.464;13.480;2023-08-31T15:09:16;2.17;;;0.50;;
9310;SDS011;4694;52.464;13.480;2023-08-31T15:11:44;1.52;;;0.63;;